Cross Lake, New York
Current Conditions -  °F | °C
As of 12:54 PM on Thursday 30 Oct 2014 (Local Time) from KSYR Reporting Station
Overcast Overcast  
Wind Chill: 43°   Ceiling: 4300
Heat Index: 47°   Visibility: 10mi
Dew Point: 39°   Wind: 9mph
Humidity: 74%   Direction: 330°NNW
Pressure: 30.04"   Gusts: NA
Location:  43.0684°N, 76.4638°W
Report Text: KSYR 301654Z 33008KT 10SM BKN043 OVC060 08/04 A3004 RMK AO2 SLP170 T00830039
Loading
Personal Weather Stations






























Interactive Weather Map
Tropical Storm Tracking
New forecast layout! Learn more

10-Day Weather Forecast

Advertisements
Track Severe Weather on mobile